sensor_id;sensor_type;location;lat;lon;timestamp;temperature;humidity
12811;DHT22;6470;47.654;7.896;2024-03-29T00:03:16;9.50;99.90
12811;DHT22;6470;47.654;7.896;2024-03-29T00:08:07;9.10;99.90
12811;DHT22;6470;47.654;7.896;2024-03-29T00:10:33;9.60;99.90
12811;DHT22;6470;47.654;7.896;2024-03-29T00:12:59;9.20;99.90
12811;DHT22;6470;47.654;7.896;2024-03-29T00:17:51;9.00;99.90
12811;DHT22;6470;47.654;7.896;2024-03-29T00:20:17;9.70;99.90
12811;DHT22;6470;47.654;7.896;2024-03-29T00:22:42;10.10;99.90
12811;DHT22;6470;47.654;7.896;2024-03-29T00:27:34;9.00;99.90
12811;DHT22;6470;47.654;7.896;2024-03-29T00:30:01;8.90;99.90
12811;DHT22;6470;47.654;7.896;2024-03-29T00:37:20;9.00;99.90
12811;DHT22;6470;47.654;7.896;2024-03-29T00:39:46;9.10;99.90
12811;DHT22;6470;47.654;7.896;2024-03-29T00:47:06;9.50;99.90
12811;DHT22;6470;47.654;7.896;2024-03-29T00:49:32;9.50;99.90
12811;DHT22;6470;47.654;7.896;2024-03-29T00:51:59;9.60;99.90
12811;DHT22;6470;47.654;7.896;2024-03-29T00:56:50;9.80;99.90
12811;DHT22;6470;47.654;7.896;2024-03-29T00:59:16;9.50;99.90
12811;DHT22;6470;47.654;7.896;2024-03-29T01:06:35;9.50;99.90
12811;DHT22;6470;47.654;7.896;2024-03-29T01:09:01;9.50;99.90
12811;DHT22;6470;47.654;7.896;2024-03-29T01:11:26;8.80;99.90
12811;DHT22;6470;47.654;7.896;2024-03-29T01:13:53;9.40;99.90
12811;DHT22;6470;47.654;7.896;2024-03-29T01:18:45;9.40;99.90
12811;DHT22;6470;47.654;7.896;2024-03-29T01:21:12;9.20;99.90
12811;DHT22;6470;47.654;7.896;2024-03-29T01:26:05;9.30;99.90
12811;DHT22;6470;47.654;7.896;2024-03-29T01:30:57;9.00;99.90
12811;DHT22;6470;47.654;7.896;2024-03-29T01:33:26;9.50;99.90
12811;DHT22;6470;47.654;7.896;2024-03-29T01:35:52;9.20;99.90
12811;DHT22;6470;47.654;7.896;2024-03-29T01:38:18;9.50;99.90
12811;DHT22;6470;47.654;7.896;2024-03-29T01:40:44;9.20;99.90
12811;DHT22;6470;47.654;7.896;2024-03-29T01:43:10;9.10;99.90
12811;DHT22;6470;47.654;7.896;2024-03-29T01:45:38;8.20;99.90
12811;DHT22;6470;47.654;7.896;2024-03-29T01:48:06;9.20;99.90
12811;DHT22;6470;47.654;7.896;2024-03-29T01:50:32;7.90;99.90
12811;DHT22;6470;47.654;7.896;2024-03-29T01:52:59;7.80;99.90
12811;DHT22;6470;47.654;7.896;2024-03-29T01:55:25;7.00;99.90
12811;DHT22;6470;47.654;7.896;2024-03-29T01:57:51;7.00;99.90
12811;DHT22;6470;47.654;7.896;2024-03-29T02:00:18;7.40;99.90
12811;DHT22;6470;47.654;7.896;2024-03-29T02:02:44;7.40;99.90
12811;DHT22;6470;47.654;7.896;2024-03-29T02:05:10;6.50;99.90
12811;DHT22;6470;47.654;7.896;2024-03-29T02:07:36;6.60;99.90
12811;DHT22;6470;47.654;7.896;2024-03-29T02:10:03;6.50;99.90
12811;DHT22;6470;47.654;7.896;2024-03-29T02:12:29;6.20;99.90
12811;DHT22;6470;47.654;7.896;2024-03-29T02:14:54;6.50;99.90
12811;DHT22;6470;47.654;7.896;2024-03-29T02:17:21;5.90;99.90
12811;DHT22;6470;47.654;7.896;2024-03-29T02:19:46;6.30;99.90
12811;DHT22;6470;47.654;7.896;2024-03-29T02:22:15;4.50;99.90
12811;DHT22;6470;47.654;7.896;2024-03-29T02:24:41;6.20;99.90
12811;DHT22;6470;47.654;7.896;2024-03-29T02:27:06;5.90;99.90
12811;DHT22;6470;47.654;7.896;2024-03-29T02:29:32;6.40;99.90
12811;DHT22;6470;47.654;7.896;2024-03-29T02:32:03;6.30;99.90
12811;DHT22;6470;47.654;7.896;2024-03-29T02:36:55;6.60;99.90
12811;DHT22;6470;47.654;7.896;2024-03-29T02:44:14;6.10;99.90
12811;DHT22;6470;47.654;7.896;2024-03-29T02:46:41;6.30;99.90
12811;DHT22;6470;47.654;7.896;2024-03-29T02:49:07;6.40;99.90
12811;DHT22;6470;47.654;7.896;2024-03-29T02:51:33;6.50;99.90
12811;DHT22;6470;47.654;7.896;2024-03-29T02:53:59;6.90;99.90
12811;DHT22;6470;47.654;7.896;2024-03-29T02:58:52;7.10;99.90
12811;DHT22;6470;47.654;7.896;2024-03-29T03:01:18;7.30;99.90
12811;DHT22;6470;47.654;7.896;2024-03-29T03:03:44;8.90;99.90
12811;DHT22;6470;47.654;7.896;2024-03-29T03:11:20;9.30;99.90
12811;DHT22;6470;47.654;7.896;2024-03-29T03:16:12;10.20;99.90
12811;DHT22;6470;47.654;7.896;2024-03-29T03:18:38;9.90;99.90
12811;DHT22;6470;47.654;7.896;2024-03-29T03:21:03;9.10;99.90
12811;DHT22;6470;47.654;7.896;2024-03-29T03:23:29;9.60;99.90
12811;DHT22;6470;47.654;7.896;2024-03-29T03:26:03;9.80;99.90
12811;DHT22;6470;47.654;7.896;2024-03-29T03:28:32;10.10;99.90
12811;DHT22;6470;47.654;7.896;2024-03-29T03:30:57;10.30;99.90
12811;DHT22;6470;47.654;7.896;2024-03-29T03:38:16;10.00;99.90
12811;DHT22;6470;47.654;7.896;2024-03-29T03:43:08;10.10;99.90
12811;DHT22;6470;47.654;7.896;2024-03-29T03:45:38;10.60;99.90
12811;DHT22;6470;47.654;7.896;2024-03-29T03:48:06;10.30;99.90
12811;DHT22;6470;47.654;7.896;2024-03-29T03:50:32;10.50;99.90
12811;DHT22;6470;47.654;7.896;2024-03-29T03:52:58;10.60;99.90
12811;DHT22;6470;47.654;7.896;2024-03-29T03:55:24;10.60;99.90
12811;DHT22;6470;47.654;7.896;2024-03-29T04:00:18;10.00;99.90
12811;DHT22;6470;47.654;7.896;2024-03-29T04:02:51;12.10;99.90
12811;DHT22;6470;47.654;7.896;2024-03-29T04:05:20;10.60;99.90
12811;DHT22;6470;47.654;7.896;2024-03-29T04:07:46;9.40;99.90
12811;DHT22;6470;47.654;7.896;2024-03-29T04:10:12;12.20;99.90
12811;DHT22;6470;47.654;7.896;2024-03-29T04:12:38;12.10;99.90
12811;DHT22;6470;47.654;7.896;2024-03-29T04:17:31;10.80;99.90
12811;DHT22;6470;47.654;7.896;2024-03-29T04:20:00;10.90;99.90
12811;DHT22;6470;47.654;7.896;2024-03-29T04:22:29;11.00;99.90
12811;DHT22;6470;47.654;7.896;2024-03-29T04:27:21;12.00;99.90
12811;DHT22;6470;47.654;7.896;2024-03-29T04:29:51;12.10;99.90
12811;DHT22;6470;47.654;7.896;2024-03-29T04:34:47;9.70;99.90
12811;DHT22;6470;47.654;7.896;2024-03-29T04:37:13;12.10;99.90
12811;DHT22;6470;47.654;7.896;2024-03-29T04:39:39;12.20;99.90
12811;DHT22;6470;47.654;7.896;2024-03-29T04:42:04;12.30;99.90
12811;DHT22;6470;47.654;7.896;2024-03-29T04:44:30;12.50;99.90
12811;DHT22;6470;47.654;7.896;2024-03-29T04:49:23;10.20;99.90
12811;DHT22;6470;47.654;7.896;2024-03-29T04:52:09;9.10;99.90
12811;DHT22;6470;47.654;7.896;2024-03-29T04:54:35;9.90;99.90
12811;DHT22;6470;47.654;7.896;2024-03-29T04:57:01;9.30;99.90
12811;DHT22;6470;47.654;7.896;2024-03-29T04:59:32;9.30;99.90
12811;DHT22;6470;47.654;7.896;2024-03-29T05:02:01;8.30;99.90
12811;DHT22;6470;47.654;7.896;2024-03-29T05:04:27;9.30;99.90
12811;DHT22;6470;47.654;7.896;2024-03-29T05:06:57;9.20;99.90
12811;DHT22;6470;47.654;7.896;2024-03-29T05:09:24;9.60;99.90
12811;DHT22;6470;47.654;7.896;2024-03-29T05:11:50;9.60;99.90
12811;DHT22;6470;47.654;7.896;2024-03-29T05:14:18;10.50;99.90
12811;DHT22;6470;47.654;7.896;2024-03-29T05:16:47;10.10;99.90
12811;DHT22;6470;47.654;7.896;2024-03-29T05:19:14;9.50;99.90
12811;DHT22;6470;47.654;7.896;2024-03-29T05:21:41;10.00;99.90
12811;DHT22;6470;47.654;7.896;2024-03-29T05:26:33;9.70;99.90
12811;DHT22;6470;47.654;7.896;2024-03-29T05:28:59;10.00;99.90
12811;DHT22;6470;47.654;7.896;2024-03-29T05:31:25;9.10;99.90
12811;DHT22;6470;47.654;7.896;2024-03-29T05:33:52;9.20;99.90
12811;DHT22;6470;47.654;7.896;2024-03-29T05:36:18;9.70;99.90
12811;DHT22;6470;47.654;7.896;2024-03-29T05:38:44;10.30;99.90
12811;DHT22;6470;47.654;7.896;2024-03-29T05:41:10;10.00;99.90
12811;DHT22;6470;47.654;7.896;2024-03-29T05:43:36;9.70;99.90
12811;DHT22;6470;47.654;7.896;2024-03-29T05:46:02;9.30;99.90
12811;DHT22;6470;47.654;7.896;2024-03-29T05:48:28;9.20;99.90
12811;DHT22;6470;47.654;7.896;2024-03-29T05:50:55;9.40;99.90
12811;DHT22;6470;47.654;7.896;2024-03-29T05:53:20;9.10;99.90
12811;DHT22;6470;47.654;7.896;2024-03-29T05:55:46;9.00;99.90
12811;DHT22;6470;47.654;7.896;2024-03-29T05:58:12;8.60;99.90
12811;DHT22;6470;47.654;7.896;2024-03-29T06:03:08;7.60;99.90
12811;DHT22;6470;47.654;7.896;2024-03-29T06:05:34;8.10;99.90
12811;DHT22;6470;47.654;7.896;2024-03-29T06:08:00;8.10;99.90
12811;DHT22;6470;47.654;7.896;2024-03-29T06:10:25;8.20;99.90
12811;DHT22;6470;47.654;7.896;2024-03-29T06:12:51;8.20;99.90
12811;DHT22;6470;47.654;7.896;2024-03-29T06:15:17;7.80;99.90
12811;DHT22;6470;47.654;7.896;2024-03-29T06:18:01;7.90;99.90
12811;DHT22;6470;47.654;7.896;2024-03-29T06:22:53;7.80;99.90
12811;DHT22;6470;47.654;7.896;2024-03-29T06:27:44;8.70;99.90
12811;DHT22;6470;47.654;7.896;2024-03-29T06:30:13;8.30;99.90
12811;DHT22;6470;47.654;7.896;2024-03-29T06:32:39;8.70;99.90
12811;DHT22;6470;47.654;7.896;2024-03-29T06:37:32;8.40;99.90
12811;DHT22;6470;47.654;7.896;2024-03-29T06:39:57;8.20;99.90
12811;DHT22;6470;47.654;7.896;2024-03-29T06:42:23;8.70;99.90
12811;DHT22;6470;47.654;7.896;2024-03-29T06:44:49;8.70;99.90
12811;DHT22;6470;47.654;7.896;2024-03-29T06:47:15;6.30;99.90
12811;DHT22;6470;47.654;7.896;2024-03-29T06:49:40;8.70;99.90
12811;DHT22;6470;47.654;7.896;2024-03-29T06:54:32;9.00;99.90
12811;DHT22;6470;47.654;7.896;2024-03-29T06:56:59;8.50;99.90
12811;DHT22;6470;47.654;7.896;2024-03-29T06:59:26;8.70;99.90
12811;DHT22;6470;47.654;7.896;2024-03-29T07:01:51;8.80;99.90
12811;DHT22;6470;47.654;7.896;2024-03-29T07:04:21;8.90;99.90
12811;DHT22;6470;47.654;7.896;2024-03-29T07:06:47;9.00;99.90
12811;DHT22;6470;47.654;7.896;2024-03-29T07:14:08;8.60;99.90
12811;DHT22;6470;47.654;7.896;2024-03-29T07:16:34;9.10;99.90
12811;DHT22;6470;47.654;7.896;2024-03-29T07:19:00;9.00;99.90
12811;DHT22;6470;47.654;7.896;2024-03-29T07:21:26;8.20;99.90
12811;DHT22;6470;47.654;7.896;2024-03-29T07:23:51;9.10;99.90
12811;DHT22;6470;47.654;7.896;2024-03-29T07:26:17;7.90;99.90
12811;DHT22;6470;47.654;7.896;2024-03-29T07:31:09;8.90;99.90
12811;DHT22;6470;47.654;7.896;2024-03-29T07:33:35;9.00;99.90
12811;DHT22;6470;47.654;7.896;2024-03-29T07:36:01;8.60;99.90
12811;DHT22;6470;47.654;7.896;2024-03-29T07:38:29;9.00;99.90
12811;DHT22;6470;47.654;7.896;2024-03-29T07:40:55;9.40;99.90
12811;DHT22;6470;47.654;7.896;2024-03-29T07:43:22;8.80;99.90
12811;DHT22;6470;47.654;7.896;2024-03-29T07:48:16;9.30;99.90
12811;DHT22;6470;47.654;7.896;2024-03-29T07:50:42;9.30;99.90
12811;DHT22;6470;47.654;7.896;2024-03-29T07:53:08;8.80;99.90
12811;DHT22;6470;47.654;7.896;2024-03-29T07:55:36;7.90;99.90
12811;DHT22;6470;47.654;7.896;2024-03-29T08:00:32;9.20;99.90
12811;DHT22;6470;47.654;7.896;2024-03-29T08:02:58;9.00;99.90
12811;DHT22;6470;47.654;7.896;2024-03-29T08:05:24;6.70;99.90
12811;DHT22;6470;47.654;7.896;2024-03-29T08:07:50;6.40;99.90
12811;DHT22;6470;47.654;7.896;2024-03-29T08:10:16;8.70;99.90
12811;DHT22;6470;47.654;7.896;2024-03-29T08:12:42;8.30;99.90
12811;DHT22;6470;47.654;7.896;2024-03-29T08:15:08;8.90;99.90
12811;DHT22;6470;47.654;7.896;2024-03-29T08:17:34;8.20;99.90
12811;DHT22;6470;47.654;7.896;2024-03-29T08:24:54;8.50;99.90
12811;DHT22;6470;47.654;7.896;2024-03-29T08:27:19;8.10;99.90
12811;DHT22;6470;47.654;7.896;2024-03-29T08:29:45;8.00;99.90
12811;DHT22;6470;47.654;7.896;2024-03-29T08:32:11;8.70;99.90
12811;DHT22;6470;47.654;7.896;2024-03-29T08:34:38;8.90;99.90
12811;DHT22;6470;47.654;7.896;2024-03-29T08:37:04;8.90;99.90
12811;DHT22;6470;47.654;7.896;2024-03-29T08:39:30;8.80;99.90
12811;DHT22;6470;47.654;7.896;2024-03-29T08:41:57;9.30;99.90
12811;DHT22;6470;47.654;7.896;2024-03-29T08:44:23;9.50;99.90
12811;DHT22;6470;47.654;7.896;2024-03-29T08:46:50;9.50;99.90
12811;DHT22;6470;47.654;7.896;2024-03-29T08:49:16;9.00;99.90
12811;DHT22;6470;47.654;7.896;2024-03-29T08:51:42;9.20;99.90
12811;DHT22;6470;47.654;7.896;2024-03-29T08:54:07;9.20;99.90
12811;DHT22;6470;47.654;7.896;2024-03-29T08:56:33;9.70;99.90
12811;DHT22;6470;47.654;7.896;2024-03-29T08:59:03;9.40;99.90
12811;DHT22;6470;47.654;7.896;2024-03-29T09:01:33;9.70;99.90
12811;DHT22;6470;47.654;7.896;2024-03-29T09:03:59;9.80;99.90
12811;DHT22;6470;47.654;7.896;2024-03-29T09:06:24;9.30;99.90
12811;DHT22;6470;47.654;7.896;2024-03-29T09:08:50;10.00;99.90
12811;DHT22;6470;47.654;7.896;2024-03-29T09:21:00;10.40;99.90
12811;DHT22;6470;47.654;7.896;2024-03-29T09:23:27;11.70;99.90
12811;DHT22;6470;47.654;7.896;2024-03-29T09:25:56;10.90;99.90
12811;DHT22;6470;47.654;7.896;2024-03-29T09:28:25;11.50;99.90
12811;DHT22;6470;47.654;7.896;2024-03-29T09:30:58;12.10;99.90
12811;DHT22;6470;47.654;7.896;2024-03-29T09:33:24;12.40;99.90
12811;DHT22;6470;47.654;7.896;2024-03-29T09:35:50;12.00;99.90
12811;DHT22;6470;47.654;7.896;2024-03-29T09:38:16;11.10;99.90
12811;DHT22;6470;47.654;7.896;2024-03-29T09:40:41;11.60;99.90
12811;DHT22;6470;47.654;7.896;2024-03-29T09:43:09;12.20;99.90
12811;DHT22;6470;47.654;7.896;2024-03-29T09:45:36;11.30;99.90
12811;DHT22;6470;47.654;7.896;2024-03-29T09:48:07;11.20;99.90
12811;DHT22;6470;47.654;7.896;2024-03-29T09:50:35;14.20;99.90
12811;DHT22;6470;47.654;7.896;2024-03-29T09:53:02;14.80;99.90
12811;DHT22;6470;47.654;7.896;2024-03-29T09:55:28;9.80;99.90
12811;DHT22;6470;47.654;7.896;2024-03-29T09:57:55;11.50;99.90
12811;DHT22;6470;47.654;7.896;2024-03-29T10:00:21;14.60;99.90
12811;DHT22;6470;47.654;7.896;2024-03-29T10:02:49;14.80;99.90
12811;DHT22;6470;47.654;7.896;2024-03-29T10:07:43;14.90;99.90
12811;DHT22;6470;47.654;7.896;2024-03-29T10:10:10;15.30;99.90
12811;DHT22;6470;47.654;7.896;2024-03-29T10:12:36;15.00;99.90
12811;DHT22;6470;47.654;7.896;2024-03-29T10:15:03;15.10;99.90
12811;DHT22;6470;47.654;7.896;2024-03-29T10:17:50;14.50;99.90
12811;DHT22;6470;47.654;7.896;2024-03-29T10:20:19;14.90;99.90
12811;DHT22;6470;47.654;7.896;2024-03-29T10:22:46;14.80;99.90
12811;DHT22;6470;47.654;7.896;2024-03-29T10:25:15;14.70;99.90
12811;DHT22;6470;47.654;7.896;2024-03-29T10:30:08;14.70;99.90
12811;DHT22;6470;47.654;7.896;2024-03-29T10:32:40;15.30;99.90
12811;DHT22;6470;47.654;7.896;2024-03-29T10:35:06;14.70;99.90
12811;DHT22;6470;47.654;7.896;2024-03-29T10:37:33;15.00;99.90
12811;DHT22;6470;47.654;7.896;2024-03-29T10:40:08;15.20;99.90
12811;DHT22;6470;47.654;7.896;2024-03-29T10:42:37;14.90;99.90
12811;DHT22;6470;47.654;7.896;2024-03-29T10:45:07;14.90;99.90
12811;DHT22;6470;47.654;7.896;2024-03-29T10:47:33;15.00;99.90
12811;DHT22;6470;47.654;7.896;2024-03-29T10:49:59;15.10;99.90
12811;DHT22;6470;47.654;7.896;2024-03-29T10:52:26;15.60;99.90
12811;DHT22;6470;47.654;7.896;2024-03-29T10:54:53;15.40;99.90
12811;DHT22;6470;47.654;7.896;2024-03-29T10:57:26;15.70;99.90
12811;DHT22;6470;47.654;7.896;2024-03-29T11:02:56;15.00;99.90
12811;DHT22;6470;47.654;7.896;2024-03-29T11:05:22;15.20;99.90
12811;DHT22;6470;47.654;7.896;2024-03-29T11:07:50;15.70;99.90
12811;DHT22;6470;47.654;7.896;2024-03-29T11:12:58;15.70;99.90
12811;DHT22;6470;47.654;7.896;2024-03-29T11:15:30;15.30;99.90
12811;DHT22;6470;47.654;7.896;2024-03-29T11:17:56;15.80;99.90
12811;DHT22;6470;47.654;7.896;2024-03-29T11:20:27;15.40;99.90
12811;DHT22;6470;47.654;7.896;2024-03-29T11:23:11;15.90;99.90
12811;DHT22;6470;47.654;7.896;2024-03-29T11:25:41;15.10;99.90
12811;DHT22;6470;47.654;7.896;2024-03-29T11:28:08;15.70;99.90
12811;DHT22;6470;47.654;7.896;2024-03-29T11:30:48;15.90;99.90
12811;DHT22;6470;47.654;7.896;2024-03-29T11:33:44;15.90;99.90
12811;DHT22;6470;47.654;7.896;2024-03-29T11:36:11;15.90;99.90
12811;DHT22;6470;47.654;7.896;2024-03-29T11:38:38;15.80;99.90
12811;DHT22;6470;47.654;7.896;2024-03-29T11:41:10;15.30;99.90
12811;DHT22;6470;47.654;7.896;2024-03-29T11:46:06;16.40;99.90
12811;DHT22;6470;47.654;7.896;2024-03-29T11:50:59;17.20;99.90
12811;DHT22;6470;47.654;7.896;2024-03-29T11:53:25;17.80;99.90
12811;DHT22;6470;47.654;7.896;2024-03-29T11:58:23;18.30;99.90
12811;DHT22;6470;47.654;7.896;2024-03-29T12:00:49;18.00;99.90
12811;DHT22;6470;47.654;7.896;2024-03-29T12:03:16;18.40;99.90
12811;DHT22;6470;47.654;7.896;2024-03-29T12:05:46;18.30;99.90
12811;DHT22;6470;47.654;7.896;2024-03-29T12:08:13;18.70;99.90
12811;DHT22;6470;47.654;7.896;2024-03-29T12:10:39;17.90;99.90
12811;DHT22;6470;47.654;7.896;2024-03-29T12:13:05;18.70;99.90
12811;DHT22;6470;47.654;7.896;2024-03-29T12:15:31;19.00;99.90
12811;DHT22;6470;47.654;7.896;2024-03-29T12:17:58;19.20;99.90
12811;DHT22;6470;47.654;7.896;2024-03-29T12:20:25;19.20;99.90
12811;DHT22;6470;47.654;7.896;2024-03-29T12:22:51;19.20;99.90
12811;DHT22;6470;47.654;7.896;2024-03-29T12:25:19;18.70;99.90
12811;DHT22;6470;47.654;7.896;2024-03-29T12:27:46;18.60;99.90
12811;DHT22;6470;47.654;7.896;2024-03-29T12:30:12;19.10;99.90
12811;DHT22;6470;47.654;7.896;2024-03-29T12:32:39;19.40;99.90
12811;DHT22;6470;47.654;7.896;2024-03-29T12:35:13;19.90;99.90
12811;DHT22;6470;47.654;7.896;2024-03-29T12:37:50;19.90;99.90
12811;DHT22;6470;47.654;7.896;2024-03-29T12:42:48;19.30;99.90
12811;DHT22;6470;47.654;7.896;2024-03-29T12:45:14;19.00;99.90
12811;DHT22;6470;47.654;7.896;2024-03-29T12:47:40;19.40;99.90
12811;DHT22;6470;47.654;7.896;2024-03-29T12:50:06;20.30;99.90
12811;DHT22;6470;47.654;7.896;2024-03-29T12:52:39;20.50;99.90
12811;DHT22;6470;47.654;7.896;2024-03-29T12:55:06;17.10;98.20
12811;DHT22;6470;47.654;7.896;2024-03-29T12:57:40;20.90;99.50
12811;DHT22;6470;47.654;7.896;2024-03-29T13:00:08;20.50;94.10
12811;DHT22;6470;47.654;7.896;2024-03-29T13:02:38;20.30;95.50
12811;DHT22;6470;47.654;7.896;2024-03-29T13:05:04;21.20;95.30
12811;DHT22;6470;47.654;7.896;2024-03-29T13:07:33;21.10;93.40
12811;DHT22;6470;47.654;7.896;2024-03-29T13:10:03;21.40;91.40
12811;DHT22;6470;47.654;7.896;2024-03-29T13:12:42;21.00;88.10
12811;DHT22;6470;47.654;7.896;2024-03-29T13:15:22;22.00;85.60
12811;DHT22;6470;47.654;7.896;2024-03-29T13:17:53;21.20;82.70
12811;DHT22;6470;47.654;7.896;2024-03-29T13:20:19;21.30;79.40
12811;DHT22;6470;47.654;7.896;2024-03-29T13:22:46;21.50;76.80
12811;DHT22;6470;47.654;7.896;2024-03-29T13:25:13;21.30;78.40
12811;DHT22;6470;47.654;7.896;2024-03-29T13:27:40;22.00;81.30
12811;DHT22;6470;47.654;7.896;2024-03-29T13:30:07;21.80;80.20
12811;DHT22;6470;47.654;7.896;2024-03-29T13:32:35;21.50;81.00
12811;DHT22;6470;47.654;7.896;2024-03-29T13:35:01;21.40;81.10
12811;DHT22;6470;47.654;7.896;2024-03-29T13:37:31;22.00;80.10
12811;DHT22;6470;47.654;7.896;2024-03-29T13:39:57;22.40;79.70
12811;DHT22;6470;47.654;7.896;2024-03-29T13:42:23;22.30;79.00
12811;DHT22;6470;47.654;7.896;2024-03-29T13:44:52;21.90;79.40
12811;DHT22;6470;47.654;7.896;2024-03-29T13:47:19;18.20;79.70
12811;DHT22;6470;47.654;7.896;2024-03-29T13:49:45;21.20;80.90
12811;DHT22;6470;47.654;7.896;2024-03-29T13:52:14;21.60;83.20
12811;DHT22;6470;47.654;7.896;2024-03-29T13:54:44;18.60;80.60
12811;DHT22;6470;47.654;7.896;2024-03-29T13:57:13;21.70;82.60
12811;DHT22;6470;47.654;7.896;2024-03-29T13:59:39;22.30;82.80
12811;DHT22;6470;47.654;7.896;2024-03-29T14:02:08;22.20;82.60
12811;DHT22;6470;47.654;7.896;2024-03-29T14:04:33;21.40;81.50
12811;DHT22;6470;47.654;7.896;2024-03-29T14:09:27;22.70;80.70
12811;DHT22;6470;47.654;7.896;2024-03-29T14:11:53;22.00;80.90
12811;DHT22;6470;47.654;7.896;2024-03-29T14:14:18;22.20;80.60
12811;DHT22;6470;47.654;7.896;2024-03-29T14:16:44;19.20;79.20
12811;DHT22;6470;47.654;7.896;2024-03-29T14:19:10;21.60;79.20
12811;DHT22;6470;47.654;7.896;2024-03-29T14:21:35;22.10;79.70
12811;DHT22;6470;47.654;7.896;2024-03-29T14:24:02;21.90;80.10
12811;DHT22;6470;47.654;7.896;2024-03-29T14:28:53;22.70;82.80
12811;DHT22;6470;47.654;7.896;2024-03-29T14:31:20;21.60;80.10
12811;DHT22;6470;47.654;7.896;2024-03-29T14:33:46;21.50;81.30
12811;DHT22;6470;47.654;7.896;2024-03-29T14:36:12;22.00;79.20
12811;DHT22;6470;47.654;7.896;2024-03-29T14:38:38;21.70;79.80
12811;DHT22;6470;47.654;7.896;2024-03-29T14:41:04;21.50;82.20
12811;DHT22;6470;47.654;7.896;2024-03-29T14:43:30;21.80;85.00
12811;DHT22;6470;47.654;7.896;2024-03-29T14:50:50;21.20;85.80
12811;DHT22;6470;47.654;7.896;2024-03-29T14:55:41;20.90;86.40
12811;DHT22;6470;47.654;7.896;2024-03-29T14:58:08;21.20;86.70
12811;DHT22;6470;47.654;7.896;2024-03-29T15:00:34;20.70;86.60
12811;DHT22;6470;47.654;7.896;2024-03-29T15:03:00;20.20;87.90
12811;DHT22;6470;47.654;7.896;2024-03-29T15:05:26;19.80;89.70
12811;DHT22;6470;47.654;7.896;2024-03-29T15:07:52;19.80;90.00
12811;DHT22;6470;47.654;7.896;2024-03-29T15:10:18;20.50;89.50
12811;DHT22;6470;47.654;7.896;2024-03-29T15:12:45;20.40;90.10
12811;DHT22;6470;47.654;7.896;2024-03-29T15:15:14;20.80;89.30
12811;DHT22;6470;47.654;7.896;2024-03-29T15:17:39;20.50;89.70
12811;DHT22;6470;47.654;7.896;2024-03-29T15:20:07;20.30;90.20
12811;DHT22;6470;47.654;7.896;2024-03-29T15:22:38;19.80;90.40
12811;DHT22;6470;47.654;7.896;2024-03-29T15:25:04;20.20;90.60
12811;DHT22;6470;47.654;7.896;2024-03-29T15:30:15;19.70;91.30
12811;DHT22;6470;47.654;7.896;2024-03-29T15:35:08;19.20;92.20
12811;DHT22;6470;47.654;7.896;2024-03-29T15:37:34;19.50;92.60
12811;DHT22;6470;47.654;7.896;2024-03-29T15:40:00;19.60;93.00
12811;DHT22;6470;47.654;7.896;2024-03-29T15:42:26;19.50;93.50
12811;DHT22;6470;47.654;7.896;2024-03-29T15:47:18;19.60;93.40
12811;DHT22;6470;47.654;7.896;2024-03-29T15:49:44;19.50;95.90
12811;DHT22;6470;47.654;7.896;2024-03-29T15:52:10;18.90;93.90
12811;DHT22;6470;47.654;7.896;2024-03-29T15:54:36;19.20;98.90
12811;DHT22;6470;47.654;7.896;2024-03-29T16:04:21;18.50;99.90
12811;DHT22;6470;47.654;7.896;2024-03-29T16:06:47;17.60;95.30
12811;DHT22;6470;47.654;7.896;2024-03-29T16:09:13;18.50;94.00
12811;DHT22;6470;47.654;7.896;2024-03-29T16:11:39;18.20;94.50
12811;DHT22;6470;47.654;7.896;2024-03-29T16:14:06;18.30;93.90
12811;DHT22;6470;47.654;7.896;2024-03-29T16:16:33;18.20;93.60
12811;DHT22;6470;47.654;7.896;2024-03-29T16:18:58;18.60;93.50
12811;DHT22;6470;47.654;7.896;2024-03-29T16:23:54;19.10;94.80
12811;DHT22;6470;47.654;7.896;2024-03-29T16:26:20;18.40;94.30
12811;DHT22;6470;47.654;7.896;2024-03-29T16:28:46;15.00;93.60
12811;DHT22;6470;47.654;7.896;2024-03-29T16:31:13;15.40;92.80
12811;DHT22;6470;47.654;7.896;2024-03-29T16:33:39;18.50;94.60
12811;DHT22;6470;47.654;7.896;2024-03-29T16:36:06;15.30;94.20
12811;DHT22;6470;47.654;7.896;2024-03-29T16:38:32;17.90;94.80
12811;DHT22;6470;47.654;7.896;2024-03-29T16:45:50;17.80;99.30
12811;DHT22;6470;47.654;7.896;2024-03-29T16:50:42;18.30;96.50
12811;DHT22;6470;47.654;7.896;2024-03-29T16:53:08;18.60;96.70
12811;DHT22;6470;47.654;7.896;2024-03-29T16:55:33;17.50;99.90
12811;DHT22;6470;47.654;7.896;2024-03-29T16:58:02;17.30;99.90
12811;DHT22;6470;47.654;7.896;2024-03-29T17:00:27;18.20;99.90
12811;DHT22;6470;47.654;7.896;2024-03-29T17:02:53;16.70;99.90
12811;DHT22;6470;47.654;7.896;2024-03-29T17:05:19;14.00;99.90
12811;DHT22;6470;47.654;7.896;2024-03-29T17:07:45;16.50;99.90
12811;DHT22;6470;47.654;7.896;2024-03-29T17:10:11;16.40;99.90
12811;DHT22;6470;47.654;7.896;2024-03-29T17:12:36;16.60;99.90
12811;DHT22;6470;47.654;7.896;2024-03-29T17:15:02;16.90;99.90
12811;DHT22;6470;47.654;7.896;2024-03-29T17:17:29;16.30;99.90
12811;DHT22;6470;47.654;7.896;2024-03-29T17:19:55;16.30;99.90
12811;DHT22;6470;47.654;7.896;2024-03-29T17:22:21;16.40;99.90
12811;DHT22;6470;47.654;7.896;2024-03-29T17:24:48;15.60;99.90
12811;DHT22;6470;47.654;7.896;2024-03-29T17:27:14;13.30;99.90
12811;DHT22;6470;47.654;7.896;2024-03-29T17:29:40;16.00;99.90
12811;DHT22;6470;47.654;7.896;2024-03-29T17:32:06;15.30;99.90
12811;DHT22;6470;47.654;7.896;2024-03-29T17:34:33;16.30;99.90
12811;DHT22;6470;47.654;7.896;2024-03-29T17:36:59;15.60;99.90
12811;DHT22;6470;47.654;7.896;2024-03-29T17:39:25;15.80;99.90
12811;DHT22;6470;47.654;7.896;2024-03-29T17:41:50;16.20;99.90
12811;DHT22;6470;47.654;7.896;2024-03-29T17:44:17;16.20;99.90
12811;DHT22;6470;47.654;7.896;2024-03-29T17:46:43;16.10;99.90
12811;DHT22;6470;47.654;7.896;2024-03-29T17:49:12;16.10;99.90
12811;DHT22;6470;47.654;7.896;2024-03-29T17:51:38;15.70;99.90
12811;DHT22;6470;47.654;7.896;2024-03-29T17:54:04;15.90;99.90
12811;DHT22;6470;47.654;7.896;2024-03-29T17:56:32;15.90;99.90
12811;DHT22;6470;47.654;7.896;2024-03-29T17:58:59;12.10;99.90
12811;DHT22;6470;47.654;7.896;2024-03-29T18:03:51;15.50;99.90
12811;DHT22;6470;47.654;7.896;2024-03-29T18:06:18;15.60;99.90
12811;DHT22;6470;47.654;7.896;2024-03-29T18:08:44;15.50;99.90
12811;DHT22;6470;47.654;7.896;2024-03-29T18:11:09;15.90;99.90
12811;DHT22;6470;47.654;7.896;2024-03-29T18:16:08;15.70;99.90
12811;DHT22;6470;47.654;7.896;2024-03-29T18:18:35;11.10;99.90
12811;DHT22;6470;47.654;7.896;2024-03-29T18:23:27;15.60;99.90
12811;DHT22;6470;47.654;7.896;2024-03-29T18:25:52;15.50;99.90
12811;DHT22;6470;47.654;7.896;2024-03-29T18:28:18;15.20;99.90
12811;DHT22;6470;47.654;7.896;2024-03-29T18:30:48;15.80;99.90
12811;DHT22;6470;47.654;7.896;2024-03-29T18:35:39;15.50;99.90
12811;DHT22;6470;47.654;7.896;2024-03-29T18:38:05;15.10;99.90
12811;DHT22;6470;47.654;7.896;2024-03-29T18:40:31;15.40;99.90
12811;DHT22;6470;47.654;7.896;2024-03-29T18:45:24;15.50;99.90
12811;DHT22;6470;47.654;7.896;2024-03-29T18:47:51;12.50;99.90
12811;DHT22;6470;47.654;7.896;2024-03-29T18:50:18;15.20;99.90
12811;DHT22;6470;47.654;7.896;2024-03-29T18:55:10;15.60;99.90